| time (UTC) | temp F | wind direction | speed knots | gust knots | rain 1hr in | rain 24hr in | rain mn in | humidity % | barometer mb |
| 20260509000055 | 59 | 58 | 1.7 | 7.8 | 0.00 | 0.00 | 0.00 | 45 | 1016.6 |
| 20260508234603 | 60 | 0 | 0.0 | 6.1 | 0.00 | 0.00 | 0.00 | 44 | 1016.6 |
| 20260508233104 | 60 | 330 | 1.7 | 7.0 | 0.00 | 0.00 | 0.00 | 44 | 1016.4 |
| 20260508231600 | 61 | 55 | 1.7 | 5.2 | 0.00 | 0.00 | 0.00 | 44 | 1016.5 |
| 20260508230057 | 61 | 34 | 1.7 | 4.3 | 0.00 | 0.00 | 0.00 | 43 | 1016.6 |
| 20260508224556 | 61 | 92 | 4.3 | 10.4 | 0.00 | 0.00 | 0.00 | 43 | 1016.5 |
| 20260508223055 | 61 | 4 | 0.9 | 6.1 | 0.00 | 0.00 | 0.00 | 44 | 1016.5 |
| 20260508221558 | 60 | 284 | 3.5 | 7.8 | 0.00 | 0.00 | 0.00 | 45 | 1016.6 |
| 20260508220056 | 60 | 0 | 2.6 | 9.6 | 0.00 | 0.00 | 0.00 | 45 | 1016.7 |
| 20260508214556 | 60 | 35 | 2.6 | 10.4 | 0.00 | 0.00 | 0.00 | 46 | 1016.8 |
| 20260508213058 | 60 | 295 | 1.7 | 9.6 | 0.00 | 0.00 | 0.00 | 45 | 1016.9 |
| 20260508211557 | 60 | 112 | 3.5 | 13.0 | 0.00 | 0.00 | 0.00 | 45 | 1016.9 |
| 20260508210100 | 60 | 32 | 3.5 | 8.7 | 0.00 | 0.00 | 0.00 | 48 | 1017.1 |
| 20260508204558 | 60 | 96 | 4.3 | 7.8 | 0.00 | 0.00 | 0.00 | 49 | 1017.1 |
| 20260508203101 | 60 | 16 | 3.5 | 9.6 | 0.00 | 0.00 | 0.00 | 48 | 1017.2 |
| 20260508201558 | 59 | 4 | 5.2 | 10.4 | 0.00 | 0.00 | 0.00 | 50 | 1017.2 |
| 20260508200113 | 58 | 51 | 6.1 | 12.2 | 0.00 | 0.00 | 0.00 | 50 | 1017.4 |
| 20260508194607 | 58 | 43 | 3.5 | 12.2 | 0.00 | 0.00 | 0.00 | 52 | 1017.6 |
| 20260508193119 | 58 | 104 | 3.5 | 8.7 | 0.00 | 0.00 | 0.00 | 50 | 1017.6 |
| 20260508191607 | 57 | 22 | 3.5 | 8.7 | 0.00 | 0.00 | 0.00 | 52 | 1017.7 |
| 20260508190114 | 55 | 2 | 3.5 | 11.3 | 0.00 | 0.00 | 0.00 | 54 | 1017.8 |
| 20260508184601 | 56 | 93 | 2.6 | 7.8 | 0.00 | 0.00 | 0.00 | 54 | 1018.0 |
| 20260508183100 | 56 | 15 | 4.3 | 10.4 | 0.00 | 0.00 | 0.00 | 53 | 1018.1 |
| 20260508181603 | 55 | 99 | 3.5 | 7.8 | 0.00 | 0.00 | 0.00 | 57 | 1018.2 |
| 20260508180106 | 55 | 18 | 1.7 | 9.6 | 0.00 | 0.00 | 0.00 | 54 | 1018.5 |
| 20260508174556 | 54 | 67 | 3.5 | 7.8 | 0.00 | 0.00 | 0.00 | 56 | 1018.5 |
| 20260508173056 | 53 | 344 | 1.7 | 7.8 | 0.00 | 0.00 | 0.00 | 56 | 1018.6 |
| 20260508171557 | 54 | 113 | 1.7 | 7.8 | 0.00 | 0.00 | 0.00 | 58 | 1018.6 |
| 20260508170100 | 55 | 153 | 1.7 | 7.8 | 0.00 | 0.00 | 0.00 | 58 | 1018.6 |
| 20260508164554 | 54 | 14 | 3.5 | 7.0 | 0.00 | 0.03 | 0.00 | 59 | 1018.6 |
| 20260508163106 | 54 | 39 | 2.6 | 7.0 | 0.00 | 0.03 | 0.00 | 57 | 1018.4 |
| 20260508161559 | 54 | 31 | 1.7 | 7.0 | 0.00 | 0.03 | 0.00 | 55 | 1018.4 |
| 20260508160056 | 54 | 224 | 0.9 | 7.8 | 0.00 | 0.03 | 0.00 | 52 | 1018.3 |
| 20260508154559 | 54 | 6 | 0.9 | 7.0 | 0.00 | 0.11 | 0.00 | 60 | 1018.4 |
| 20260508153107 | 54 | 12 | 2.6 | 6.1 | 0.00 | 0.11 | 0.00 | 56 | 1018.3 |
| 20260508151557 | 57 | 13 | 1.7 | 6.1 | 0.00 | 0.11 | 0.00 | 40 | 1018.1 |
| 20260508150056 | 56 | 34 | 0.9 | 3.5 | 0.00 | 0.11 | 0.00 | 47 | 1018.1 |
| 20260508144557 | 53 | 154 | 0.0 | 1.7 | 0.00 | 0.27 | 0.00 | 55 | 1018.1 |
| 20260508143116 | 50 | 187 | 0.9 | 2.6 | 0.00 | 0.27 | 0.00 | 62 | 1018.5 |
| 20260508141605 | 49 | 267 | 0.9 | 2.6 | 0.00 | 0.27 | 0.00 | 65 | 1018.7 |
| 20260508140115 | 49 | 0 | 0.0 | 0.9 | 0.00 | 0.27 | 0.00 | 67 | 1018.7 |
| 20260508134556 | 48 | 271 | 0.9 | 3.5 | 0.00 | 0.27 | 0.00 | 69 | 1018.9 |
| 20260508133102 | 47 | 273 | 0.0 | 2.6 | 0.00 | 0.27 | 0.00 | 71 | 1018.8 |
| 20260508131556 | 46 | 0 | 0.0 | 4.3 | 0.00 | 0.27 | 0.00 | 74 | 1018.9 |
| 20260508130057 | 43 | 214 | 0.9 | 7.0 | 0.00 | 0.27 | 0.00 | 83 | 1019.0 |
| 20260508124558 | 41 | 181 | 0.0 | 1.7 | 0.00 | 0.27 | 0.00 | 88 | 1019.2 |
| 20260508123054 | 39 | 0 | 0.0 | 0.9 | 0.00 | 0.27 | 0.00 | 87 | 1019.2 |
| 20260508121554 | 39 | 0 | 0.0 | 0.0 | 0.00 | 0.27 | 0.00 | 85 | 1019.2 |
| 20260508120112 | 39 | 0 | 0.0 | 0.9 | 0.00 | 0.27 | 0.00 | 85 | 1018.5 |
| 20260508114602 | 39 | 0 | 0.0 | 2.6 | 0.00 | 0.27 | 0.00 | 86 | 1017.8 |
| 20260508113109 | 38 | 0 | 0.0 | 1.7 | 0.00 | 0.27 | 0.00 | 86 | 1017.6 |
| 20260508111553 | 40 | 0 | 0.0 | 0.9 | 0.00 | 0.27 | 0.00 | 85 | 1017.6 |
| 20260508110103 | 39 | 0 | 0.0 | 0.0 | 0.00 | 0.27 | 0.00 | 84 | 1017.9 |
| 20260508104557 | 39 | 0 | 0.0 | 0.9 | 0.00 | 0.27 | 0.00 | 82 | 1017.8 |
| 20260508103100 | 42 | 117 | 0.0 | 2.6 | 0.00 | 0.27 | 0.00 | 72 | 1017.4 |
| 20260508101602 | 43 | 250 | 0.9 | 6.1 | 0.00 | 0.27 | 0.00 | 71 | 1016.7 |
| 20260508100129 | 40 | 240 | 0.9 | 2.6 | 0.00 | 0.27 | 0.00 | 81 | 1016.7 |
| 20260508094556 | 41 | 0 | 0.0 | 2.6 | 0.00 | 0.27 | 0.00 | 81 | 1016.5 |
| 20260508093056 | 41 | 235 | 0.9 | 6.1 | 0.00 | 0.27 | 0.00 | 82 | 1016.8 |
| 20260508091610 | 40 | 0 | 0.0 | 0.0 | 0.00 | 0.27 | 0.00 | 83 | 1016.5 |
| 20260508090056 | 41 | 248 | 0.0 | 0.9 | 0.00 | 0.27 | 0.00 | 83 | 1016.8 |
| 20260508084556 | 41 | 0 | 0.0 | 0.0 | 0.00 | 0.27 | 0.00 | 81 | 1017.0 |
| 20260508083056 | 41 | 0 | 0.0 | 1.7 | 0.00 | 0.27 | 0.00 | 80 | 1017.3 |
| 20260508081612 | 41 | 0 | 0.0 | 0.0 | 0.00 | 0.27 | 0.00 | 79 | 1017.4 |
| 20260508080100 | 42 | 0 | 0.0 | 0.9 | 0.00 | 0.27 | 0.00 | 77 | 1017.6 |
| 20260508074559 | 43 | 0 | 0.0 | 1.7 | 0.00 | 0.27 | 0.00 | 75 | 1017.7 |
| 20260508073106 | 42 | 0 | 0.0 | 0.9 | 0.00 | 0.27 | 0.00 | 75 | 1018.2 |
| 20260508071557 | 42 | 0 | 0.0 | 0.9 | 0.00 | 0.27 | 0.00 | 74 | 1017.8 |
| 20260508070056 | 43 | 0 | 0.9 | 2.6 | 0.00 | 0.27 | 0.00 | 72 | 1017.6 |
| 20260508064556 | 43 | 237 | 1.7 | 4.3 | 0.00 | 0.27 | 0.00 | 73 | 1017.4 |
| 20260508063101 | 42 | 0 | 0.0 | 0.9 | 0.00 | 0.27 | 0.00 | 74 | 1017.4 |
| 20260508061559 | 43 | 0 | 0.0 | 0.9 | 0.00 | 0.27 | 0.00 | 73 | 1017.6 |
| 20260508060111 | 45 | 0 | 1.7 | 5.2 | 0.00 | 0.27 | 0.00 | 68 | 1017.4 |
| 20260508054639 | 44 | 208 | 1.7 | 3.5 | 0.00 | 0.27 | 0.27 | 75 | 1017.5 |
| 20260508053055 | 44 | 212 | 1.7 | 4.3 | 0.00 | 0.27 | 0.27 | 76 | 1017.9 |
| 20260508051557 | 45 | 0 | 0.0 | 3.5 | 0.00 | 0.27 | 0.27 | 68 | 1018.4 |
| 20260508050059 | 46 | 0 | 0.0 | 3.5 | 0.00 | 0.27 | 0.27 | 67 | 1017.7 |
| 20260508044554 | 46 | 0 | 0.0 | 2.6 | 0.00 | 0.27 | 0.27 | 66 | 1017.6 |
| 20260508043059 | 46 | 29 | 0.0 | 5.2 | 0.00 | 0.27 | 0.27 | 63 | 1017.4 |
| 20260508041555 | 47 | 0 | 0.0 | 0.9 | 0.00 | 0.27 | 0.27 | 63 | 1017.2 |
| 20260508040058 | 47 | 203 | 0.0 | 0.9 | 0.00 | 0.27 | 0.27 | 64 | 1017.7 |
| 20260508034559 | 49 | 345 | 0.0 | 4.3 | 0.00 | 0.27 | 0.27 | 56 | 1018.0 |
| 20260508033055 | 49 | 0 | 0.0 | 1.7 | 0.00 | 0.27 | 0.27 | 52 | 1016.9 |
| 20260508031601 | 50 | 246 | 0.0 | 4.3 | 0.00 | 0.27 | 0.27 | 50 | 1016.5 |
| 20260508030104 | 50 | 0 | 0.0 | 3.5 | 0.00 | 0.27 | 0.27 | 52 | 1016.5 |
| 20260508024609 | 51 | 0 | 1.7 | 9.6 | 0.00 | 0.27 | 0.27 | 50 | 1016.5 |
| 20260508023057 | 49 | 207 | 4.3 | 11.3 | 0.00 | 0.27 | 0.27 | 56 | 1016.4 |
| 20260508021555 | 50 | 195 | 6.1 | 11.3 | 0.00 | 0.27 | 0.27 | 54 | 1016.4 |
| 20260508020105 | 52 | 135 | 4.3 | 12.2 | 0.00 | 0.27 | 0.27 | 47 | 1016.5 |
| 20260508014620 | 54 | 254 | 6.1 | 14.8 | 0.00 | 0.27 | 0.27 | 42 | 1016.5 |
| 20260508013101 | 55 | 219 | 0.9 | 2.6 | 0.00 | 0.27 | 0.27 | 38 | 1015.9 |
| 20260508011606 | 56 | 0 | 0.9 | 4.3 | 0.00 | 0.27 | 0.27 | 36 | 1015.9 |
| 20260508004557 | 57 | 0 | 0.0 | 0.0 | 0.00 | 0.27 | 0.27 | 36 | 1015.6 |
| 20260508003055 | 58 | 41 | 0.0 | 1.7 | 0.00 | 0.27 | 0.27 | 35 | 1015.3 |
| 20260508001601 | 58 | 0 | 0.0 | 6.1 | 0.00 | 0.27 | 0.27 | 31 | 1015.1 |